Metar z połowy godziny Komunikat METAR ze strony awiacja.imgw.pl Metar G30 EPIR METAR EPIR 240430Z 17004KT CAVOK 09/06 Q1014 RMK 090 083 5/3 =